sensor_id;sensor_type;location;lat;lon;timestamp;P1;durP1;ratioP1;P2;durP2;ratioP2
58621;SDS011;44389;51.578;5.456;2022-08-19T00:00:27;33.53;;;29.63;;
58621;SDS011;44389;51.578;5.456;2022-08-19T00:02:53;35.53;;;31.83;;
58621;SDS011;44389;51.578;5.456;2022-08-19T00:05:19;35.70;;;31.70;;
58621;SDS011;44389;51.578;5.456;2022-08-19T00:07:46;36.70;;;32.95;;
58621;SDS011;44389;51.578;5.456;2022-08-19T00:12:40;41.25;;;35.63;;
58621;SDS011;44389;51.578;5.456;2022-08-19T00:15:06;43.22;;;36.58;;
58621;SDS011;44389;51.578;5.456;2022-08-19T00:17:36;39.97;;;35.65;;
58621;SDS011;44389;51.578;5.456;2022-08-19T00:20:02;39.97;;;34.38;;
58621;SDS011;44389;51.578;5.456;2022-08-19T00:22:28;41.33;;;34.88;;
58621;SDS011;44389;51.578;5.456;2022-08-19T00:24:53;41.63;;;35.60;;
58621;SDS011;44389;51.578;5.456;2022-08-19T00:27:19;35.50;;;31.65;;
58621;SDS011;44389;51.578;5.456;2022-08-19T00:29:44;32.80;;;29.35;;
58621;SDS011;44389;51.578;5.456;2022-08-19T00:32:09;32.90;;;29.42;;
58621;SDS011;44389;51.578;5.456;2022-08-19T00:34:35;32.08;;;28.63;;
58621;SDS011;44389;51.578;5.456;2022-08-19T00:37:00;30.75;;;26.23;;
58621;SDS011;44389;51.578;5.456;2022-08-19T00:39:26;31.33;;;27.88;;
58621;SDS011;44389;51.578;5.456;2022-08-19T00:41:51;32.58;;;27.85;;
58621;SDS011;44389;51.578;5.456;2022-08-19T00:46:50;33.60;;;26.95;;
58621;SDS011;44389;51.578;5.456;2022-08-19T00:49:20;30.10;;;26.67;;
58621;SDS011;44389;51.578;5.456;2022-08-19T00:51:56;31.00;;;26.92;;
58621;SDS011;44389;51.578;5.456;2022-08-19T00:54:25;32.55;;;27.33;;
58621;SDS011;44389;51.578;5.456;2022-08-19T00:56:51;31.00;;;27.05;;
58621;SDS011;44389;51.578;5.456;2022-08-19T00:59:17;33.47;;;27.55;;
58621;SDS011;44389;51.578;5.456;2022-08-19T01:01:44;33.15;;;27.73;;
58621;SDS011;44389;51.578;5.456;2022-08-19T01:04:11;30.65;;;27.35;;
58621;SDS011;44389;51.578;5.456;2022-08-19T01:06:37;30.83;;;27.38;;
58621;SDS011;44389;51.578;5.456;2022-08-19T01:11:30;30.67;;;27.25;;
58621;SDS011;44389;51.578;5.456;2022-08-19T01:14:00;32.35;;;28.65;;
58621;SDS011;44389;51.578;5.456;2022-08-19T01:16:26;39.13;;;31.95;;
58621;SDS011;44389;51.578;5.456;2022-08-19T01:18:53;55.28;;;39.78;;
58621;SDS011;44389;51.578;5.456;2022-08-19T01:21:31;57.67;;;41.78;;
58621;SDS011;44389;51.578;5.456;2022-08-19T01:24:02;41.40;;;34.28;;
58621;SDS011;44389;51.578;5.456;2022-08-19T01:26:28;34.13;;;30.05;;
58621;SDS011;44389;51.578;5.456;2022-08-19T01:28:55;33.85;;;29.23;;
58621;SDS011;44389;51.578;5.456;2022-08-19T01:31:23;35.58;;;30.25;;
58621;SDS011;44389;51.578;5.456;2022-08-19T01:33:51;37.05;;;30.10;;
58621;SDS011;44389;51.578;5.456;2022-08-19T01:38:57;38.72;;;29.45;;
58621;SDS011;44389;51.578;5.456;2022-08-19T01:41:23;41.03;;;33.58;;
58621;SDS011;44389;51.578;5.456;2022-08-19T01:43:50;40.15;;;31.63;;
58621;SDS011;44389;51.578;5.456;2022-08-19T01:46:16;55.30;;;33.55;;
58621;SDS011;44389;51.578;5.456;2022-08-19T01:48:42;40.63;;;31.30;;
58621;SDS011;44389;51.578;5.456;2022-08-19T01:51:10;35.47;;;28.63;;
58621;SDS011;44389;51.578;5.456;2022-08-19T01:53:37;39.60;;;29.42;;
58621;SDS011;44389;51.578;5.456;2022-08-19T01:56:02;36.75;;;29.52;;
58621;SDS011;44389;51.578;5.456;2022-08-19T01:58:34;38.85;;;29.55;;
58621;SDS011;44389;51.578;5.456;2022-08-19T02:01:03;39.03;;;33.92;;
58621;SDS011;44389;51.578;5.456;2022-08-19T02:03:30;36.65;;;31.05;;
58621;SDS011;44389;51.578;5.456;2022-08-19T02:05:59;35.97;;;30.30;;
58621;SDS011;44389;51.578;5.456;2022-08-19T02:08:27;32.60;;;29.20;;
58621;SDS011;44389;51.578;5.456;2022-08-19T02:10:53;29.38;;;26.23;;
58621;SDS011;44389;51.578;5.456;2022-08-19T02:13:18;35.03;;;29.13;;
58621;SDS011;44389;51.578;5.456;2022-08-19T02:15:44;37.00;;;30.08;;
58621;SDS011;44389;51.578;5.456;2022-08-19T02:18:10;33.47;;;27.98;;
58621;SDS011;44389;51.578;5.456;2022-08-19T02:20:36;31.02;;;26.35;;
58621;SDS011;44389;51.578;5.456;2022-08-19T02:23:03;42.95;;;31.90;;
58621;SDS011;44389;51.578;5.456;2022-08-19T02:25:29;36.17;;;29.15;;
58621;SDS011;44389;51.578;5.456;2022-08-19T02:27:54;32.63;;;28.60;;
58621;SDS011;44389;51.578;5.456;2022-08-19T02:30:20;34.15;;;29.05;;
58621;SDS011;44389;51.578;5.456;2022-08-19T02:32:46;50.47;;;38.75;;
58621;SDS011;44389;51.578;5.456;2022-08-19T02:35:12;50.05;;;37.88;;
58621;SDS011;44389;51.578;5.456;2022-08-19T02:37:39;43.15;;;34.33;;
58621;SDS011;44389;51.578;5.456;2022-08-19T02:40:23;50.50;;;36.80;;
58621;SDS011;44389;51.578;5.456;2022-08-19T02:42:49;41.13;;;30.98;;
58621;SDS011;44389;51.578;5.456;2022-08-19T02:45:14;47.42;;;35.38;;
58621;SDS011;44389;51.578;5.456;2022-08-19T02:47:39;41.35;;;32.53;;
58621;SDS011;44389;51.578;5.456;2022-08-19T02:50:05;52.72;;;39.63;;
58621;SDS011;44389;51.578;5.456;2022-08-19T02:52:32;49.35;;;38.30;;
58621;SDS011;44389;51.578;5.456;2022-08-19T02:54:58;58.90;;;41.95;;
58621;SDS011;44389;51.578;5.456;2022-08-19T02:57:24;61.35;;;42.30;;
58621;SDS011;44389;51.578;5.456;2022-08-19T02:59:49;60.75;;;43.60;;
58621;SDS011;44389;51.578;5.456;2022-08-19T03:02:15;50.08;;;38.92;;
58621;SDS011;44389;51.578;5.456;2022-08-19T03:04:40;61.53;;;43.35;;
58621;SDS011;44389;51.578;5.456;2022-08-19T03:07:07;57.80;;;43.20;;
58621;SDS011;44389;51.578;5.456;2022-08-19T03:09:33;66.30;;;47.33;;
58621;SDS011;44389;51.578;5.456;2022-08-19T03:12:01;56.90;;;42.38;;
58621;SDS011;44389;51.578;5.456;2022-08-19T03:14:29;65.45;;;45.38;;
58621;SDS011;44389;51.578;5.456;2022-08-19T03:16:55;81.30;;;52.50;;
58621;SDS011;44389;51.578;5.456;2022-08-19T03:19:21;70.18;;;49.67;;
58621;SDS011;44389;51.578;5.456;2022-08-19T03:21:46;67.65;;;48.08;;
58621;SDS011;44389;51.578;5.456;2022-08-19T03:24:12;74.93;;;51.00;;
58621;SDS011;44389;51.578;5.456;2022-08-19T03:26:39;58.88;;;44.20;;
58621;SDS011;44389;51.578;5.456;2022-08-19T03:29:07;70.82;;;48.72;;
58621;SDS011;44389;51.578;5.456;2022-08-19T03:31:35;69.72;;;45.72;;
58621;SDS011;44389;51.578;5.456;2022-08-19T03:34:00;67.18;;;48.38;;
58621;SDS011;44389;51.578;5.456;2022-08-19T03:36:26;72.65;;;51.50;;
58621;SDS011;44389;51.578;5.456;2022-08-19T03:38:53;65.22;;;46.55;;
58621;SDS011;44389;51.578;5.456;2022-08-19T03:41:22;70.72;;;48.42;;
58621;SDS011;44389;51.578;5.456;2022-08-19T03:43:49;61.70;;;45.75;;
58621;SDS011;44389;51.578;5.456;2022-08-19T03:46:18;60.80;;;44.13;;
58621;SDS011;44389;51.578;5.456;2022-08-19T03:48:46;64.78;;;46.33;;
58621;SDS011;44389;51.578;5.456;2022-08-19T03:51:17;67.57;;;47.13;;
58621;SDS011;44389;51.578;5.456;2022-08-19T03:53:44;57.92;;;43.88;;
58621;SDS011;44389;51.578;5.456;2022-08-19T03:56:11;53.13;;;41.88;;
58621;SDS011;44389;51.578;5.456;2022-08-19T03:58:37;60.47;;;46.15;;
58621;SDS011;44389;51.578;5.456;2022-08-19T04:01:06;65.93;;;44.97;;
58621;SDS011;44389;51.578;5.456;2022-08-19T04:03:33;63.28;;;45.97;;
58621;SDS011;44389;51.578;5.456;2022-08-19T04:06:08;57.95;;;43.63;;
58621;SDS011;44389;51.578;5.456;2022-08-19T04:08:42;70.63;;;47.38;;
58621;SDS011;44389;51.578;5.456;2022-08-19T04:11:09;58.75;;;43.60;;
58621;SDS011;44389;51.578;5.456;2022-08-19T04:13:36;57.42;;;41.25;;
58621;SDS011;44389;51.578;5.456;2022-08-19T04:16:03;55.30;;;39.72;;
58621;SDS011;44389;51.578;5.456;2022-08-19T04:18:29;56.25;;;41.35;;
58621;SDS011;44389;51.578;5.456;2022-08-19T04:20:55;65.38;;;45.33;;
58621;SDS011;44389;51.578;5.456;2022-08-19T04:23:21;54.50;;;41.58;;
58621;SDS011;44389;51.578;5.456;2022-08-19T04:25:47;52.00;;;39.25;;
58621;SDS011;44389;51.578;5.456;2022-08-19T04:28:12;51.15;;;39.22;;
58621;SDS011;44389;51.578;5.456;2022-08-19T04:30:43;54.35;;;39.25;;
58621;SDS011;44389;51.578;5.456;2022-08-19T04:33:14;52.45;;;39.42;;
58621;SDS011;44389;51.578;5.456;2022-08-19T04:35:42;46.28;;;37.22;;
58621;SDS011;44389;51.578;5.456;2022-08-19T04:38:10;54.80;;;41.20;;
58621;SDS011;44389;51.578;5.456;2022-08-19T04:40:43;61.08;;;42.47;;
58621;SDS011;44389;51.578;5.456;2022-08-19T04:43:29;64.65;;;42.38;;
58621;SDS011;44389;51.578;5.456;2022-08-19T04:45:54;47.83;;;37.58;;
58621;SDS011;44389;51.578;5.456;2022-08-19T04:48:20;54.63;;;40.58;;
58621;SDS011;44389;51.578;5.456;2022-08-19T04:50:52;74.78;;;51.42;;
58621;SDS011;44389;51.578;5.456;2022-08-19T04:53:26;51.70;;;37.50;;
58621;SDS011;44389;51.578;5.456;2022-08-19T04:55:53;78.63;;;52.33;;
58621;SDS011;44389;51.578;5.456;2022-08-19T04:58:22;61.15;;;44.92;;
58621;SDS011;44389;51.578;5.456;2022-08-19T05:00:49;76.85;;;49.58;;
58621;SDS011;44389;51.578;5.456;2022-08-19T05:03:15;67.32;;;47.95;;
58621;SDS011;44389;51.578;5.456;2022-08-19T05:05:42;76.78;;;51.83;;
58621;SDS011;44389;51.578;5.456;2022-08-19T05:08:13;75.55;;;49.63;;
58621;SDS011;44389;51.578;5.456;2022-08-19T05:10:43;95.20;;;58.13;;
58621;SDS011;44389;51.578;5.456;2022-08-19T05:13:09;108.22;;;65.03;;
58621;SDS011;44389;51.578;5.456;2022-08-19T05:15:35;89.07;;;57.47;;
58621;SDS011;44389;51.578;5.456;2022-08-19T05:18:01;184.93;;;94.18;;
58621;SDS011;44389;51.578;5.456;2022-08-19T05:20:45;198.70;;;100.13;;
58621;SDS011;44389;51.578;5.456;2022-08-19T05:23:28;195.02;;;100.35;;
58621;SDS011;44389;51.578;5.456;2022-08-19T05:25:54;187.63;;;96.85;;
58621;SDS011;44389;51.578;5.456;2022-08-19T05:28:19;191.38;;;99.28;;
58621;SDS011;44389;51.578;5.456;2022-08-19T05:30:45;203.73;;;103.97;;
58621;SDS011;44389;51.578;5.456;2022-08-19T05:33:11;198.43;;;102.55;;
58621;SDS011;44389;51.578;5.456;2022-08-19T05:35:37;182.60;;;99.80;;
58621;SDS011;44389;51.578;5.456;2022-08-19T05:38:04;179.35;;;101.47;;
58621;SDS011;44389;51.578;5.456;2022-08-19T05:40:30;177.80;;;100.32;;
58621;SDS011;44389;51.578;5.456;2022-08-19T05:42:55;176.65;;;96.63;;
58621;SDS011;44389;51.578;5.456;2022-08-19T05:45:20;171.88;;;100.00;;
58621;SDS011;44389;51.578;5.456;2022-08-19T05:47:46;163.95;;;93.18;;
58621;SDS011;44389;51.578;5.456;2022-08-19T05:50:12;162.07;;;93.50;;
58621;SDS011;44389;51.578;5.456;2022-08-19T05:52:38;154.52;;;89.90;;
58621;SDS011;44389;51.578;5.456;2022-08-19T05:55:03;154.90;;;89.00;;
58621;SDS011;44389;51.578;5.456;2022-08-19T05:57:29;163.77;;;94.47;;
58621;SDS011;44389;51.578;5.456;2022-08-19T05:59:55;161.10;;;90.75;;
58621;SDS011;44389;51.578;5.456;2022-08-19T06:02:21;155.90;;;89.57;;
58621;SDS011;44389;51.578;5.456;2022-08-19T06:04:47;153.50;;;88.90;;
58621;SDS011;44389;51.578;5.456;2022-08-19T06:07:12;146.43;;;86.53;;
58621;SDS011;44389;51.578;5.456;2022-08-19T06:09:38;145.15;;;84.63;;
58621;SDS011;44389;51.578;5.456;2022-08-19T06:12:03;139.27;;;83.63;;
58621;SDS011;44389;51.578;5.456;2022-08-19T06:14:30;141.35;;;82.72;;
58621;SDS011;44389;51.578;5.456;2022-08-19T06:16:59;152.95;;;85.90;;
58621;SDS011;44389;51.578;5.456;2022-08-19T06:19:26;139.30;;;81.35;;
58621;SDS011;44389;51.578;5.456;2022-08-19T06:21:55;139.93;;;83.47;;
58621;SDS011;44389;51.578;5.456;2022-08-19T06:24:24;136.88;;;80.18;;
58621;SDS011;44389;51.578;5.456;2022-08-19T06:26:50;144.02;;;85.00;;
58621;SDS011;44389;51.578;5.456;2022-08-19T06:29:17;138.38;;;81.97;;
58621;SDS011;44389;51.578;5.456;2022-08-19T06:31:46;136.43;;;79.68;;
58621;SDS011;44389;51.578;5.456;2022-08-19T06:34:14;125.18;;;73.60;;
58621;SDS011;44389;51.578;5.456;2022-08-19T06:36:44;132.32;;;78.13;;
58621;SDS011;44389;51.578;5.456;2022-08-19T06:39:13;120.15;;;74.13;;
58621;SDS011;44389;51.578;5.456;2022-08-19T06:41:45;124.68;;;72.80;;
58621;SDS011;44389;51.578;5.456;2022-08-19T06:44:13;119.55;;;73.60;;
58621;SDS011;44389;51.578;5.456;2022-08-19T06:46:39;126.90;;;77.03;;
58621;SDS011;44389;51.578;5.456;2022-08-19T06:49:05;114.40;;;70.28;;
58621;SDS011;44389;51.578;5.456;2022-08-19T06:51:33;112.57;;;68.32;;
58621;SDS011;44389;51.578;5.456;2022-08-19T06:53:59;113.97;;;67.18;;
58621;SDS011;44389;51.578;5.456;2022-08-19T06:56:26;105.32;;;64.90;;
58621;SDS011;44389;51.578;5.456;2022-08-19T06:58:59;111.28;;;66.68;;
58621;SDS011;44389;51.578;5.456;2022-08-19T07:01:34;111.57;;;67.78;;
58621;SDS011;44389;51.578;5.456;2022-08-19T07:04:03;104.20;;;63.67;;
58621;SDS011;44389;51.578;5.456;2022-08-19T07:06:32;101.97;;;59.30;;
58621;SDS011;44389;51.578;5.456;2022-08-19T07:08:58;103.53;;;64.60;;
58621;SDS011;44389;51.578;5.456;2022-08-19T07:11:23;103.47;;;62.35;;
58621;SDS011;44389;51.578;5.456;2022-08-19T07:13:49;91.78;;;58.67;;
58621;SDS011;44389;51.578;5.456;2022-08-19T07:16:17;93.80;;;59.40;;
58621;SDS011;44389;51.578;5.456;2022-08-19T07:18:47;115.50;;;69.40;;
58621;SDS011;44389;51.578;5.456;2022-08-19T07:21:15;104.93;;;65.13;;
58621;SDS011;44389;51.578;5.456;2022-08-19T07:23:42;124.13;;;68.40;;
58621;SDS011;44389;51.578;5.456;2022-08-19T07:26:09;102.35;;;62.30;;
58621;SDS011;44389;51.578;5.456;2022-08-19T07:28:37;116.10;;;67.20;;
58621;SDS011;44389;51.578;5.456;2022-08-19T07:31:04;109.68;;;66.25;;
58621;SDS011;44389;51.578;5.456;2022-08-19T07:33:31;96.20;;;60.15;;
58621;SDS011;44389;51.578;5.456;2022-08-19T07:35:57;120.03;;;72.55;;
58621;SDS011;44389;51.578;5.456;2022-08-19T07:38:23;99.75;;;59.15;;
58621;SDS011;44389;51.578;5.456;2022-08-19T07:40:48;92.28;;;57.80;;
58621;SDS011;44389;51.578;5.456;2022-08-19T07:43:13;92.45;;;53.88;;
58621;SDS011;44389;51.578;5.456;2022-08-19T07:45:40;85.53;;;53.92;;
58621;SDS011;44389;51.578;5.456;2022-08-19T07:48:05;89.13;;;54.63;;
58621;SDS011;44389;51.578;5.456;2022-08-19T07:50:31;80.15;;;51.72;;
58621;SDS011;44389;51.578;5.456;2022-08-19T07:52:56;82.72;;;52.22;;
58621;SDS011;44389;51.578;5.456;2022-08-19T07:55:23;80.05;;;52.80;;
58621;SDS011;44389;51.578;5.456;2022-08-19T07:57:50;74.30;;;49.92;;
58621;SDS011;44389;51.578;5.456;2022-08-19T08:00:17;76.85;;;51.92;;
58621;SDS011;44389;51.578;5.456;2022-08-19T08:02:42;79.70;;;51.67;;
58621;SDS011;44389;51.578;5.456;2022-08-19T08:05:08;76.88;;;51.80;;
58621;SDS011;44389;51.578;5.456;2022-08-19T08:07:52;75.07;;;50.03;;
58621;SDS011;44389;51.578;5.456;2022-08-19T08:10:36;77.72;;;52.72;;
58621;SDS011;44389;51.578;5.456;2022-08-19T08:13:02;73.82;;;51.08;;
58621;SDS011;44389;51.578;5.456;2022-08-19T08:15:30;69.78;;;49.38;;
58621;SDS011;44389;51.578;5.456;2022-08-19T08:17:55;69.95;;;49.55;;
58621;SDS011;44389;51.578;5.456;2022-08-19T08:20:22;72.75;;;50.70;;
58621;SDS011;44389;51.578;5.456;2022-08-19T08:22:48;71.70;;;51.13;;
58621;SDS011;44389;51.578;5.456;2022-08-19T08:25:32;69.45;;;52.25;;
58621;SDS011;44389;51.578;5.456;2022-08-19T08:27:58;66.65;;;51.33;;
58621;SDS011;44389;51.578;5.456;2022-08-19T08:30:25;71.30;;;53.17;;
58621;SDS011;44389;51.578;5.456;2022-08-19T08:32:52;68.20;;;49.97;;
58621;SDS011;44389;51.578;5.456;2022-08-19T08:35:18;75.00;;;52.08;;
58621;SDS011;44389;51.578;5.456;2022-08-19T08:37:46;69.95;;;51.03;;
58621;SDS011;44389;51.578;5.456;2022-08-19T08:43:19;68.40;;;49.28;;
58621;SDS011;44389;51.578;5.456;2022-08-19T08:51:59;57.95;;;44.40;;
58621;SDS011;44389;51.578;5.456;2022-08-19T08:54:20;57.30;;;42.70;;
58621;SDS011;44389;51.578;5.456;2022-08-19T08:56:49;63.15;;;46.10;;
58621;SDS011;44389;51.578;5.456;2022-08-19T08:59:26;61.10;;;44.80;;
58621;SDS011;44389;51.578;5.456;2022-08-19T09:01:57;62.42;;;47.28;;
58621;SDS011;44389;51.578;5.456;2022-08-19T09:04:22;59.10;;;43.85;;
58621;SDS011;44389;51.578;5.456;2022-08-19T09:06:50;61.53;;;45.35;;
58621;SDS011;44389;51.578;5.456;2022-08-19T09:09:26;55.78;;;45.03;;
58621;SDS011;44389;51.578;5.456;2022-08-19T09:12:10;62.05;;;46.80;;
58621;SDS011;44389;51.578;5.456;2022-08-19T09:17:21;59.90;;;43.42;;
58621;SDS011;44389;51.578;5.456;2022-08-19T09:20:00;62.78;;;44.17;;
58621;SDS011;44389;51.578;5.456;2022-08-19T09:22:32;56.28;;;41.65;;
58621;SDS011;44389;51.578;5.456;2022-08-19T09:24:57;58.00;;;44.40;;
58621;SDS011;44389;51.578;5.456;2022-08-19T09:27:23;54.20;;;41.83;;
58621;SDS011;44389;51.578;5.456;2022-08-19T09:29:50;51.55;;;40.97;;
58621;SDS011;44389;51.578;5.456;2022-08-19T09:32:16;54.17;;;41.63;;
58621;SDS011;44389;51.578;5.456;2022-08-19T09:34:43;54.42;;;43.35;;
58621;SDS011;44389;51.578;5.456;2022-08-19T09:37:09;59.60;;;43.60;;
58621;SDS011;44389;51.578;5.456;2022-08-19T09:39:35;57.65;;;42.20;;
58621;SDS011;44389;51.578;5.456;2022-08-19T09:42:00;61.15;;;45.33;;
58621;SDS011;44389;51.578;5.456;2022-08-19T09:44:25;62.78;;;44.20;;
58621;SDS011;44389;51.578;5.456;2022-08-19T09:46:50;60.85;;;44.22;;
58621;SDS011;44389;51.578;5.456;2022-08-19T09:49:17;59.67;;;44.25;;
58621;SDS011;44389;51.578;5.456;2022-08-19T09:51:45;59.25;;;43.85;;
58621;SDS011;44389;51.578;5.456;2022-08-19T09:54:14;60.28;;;43.75;;
58621;SDS011;44389;51.578;5.456;2022-08-19T09:56:39;57.63;;;44.88;;
58621;SDS011;44389;51.578;5.456;2022-08-19T09:59:04;59.55;;;45.58;;
58621;SDS011;44389;51.578;5.456;2022-08-19T10:01:30;60.03;;;47.45;;
58621;SDS011;44389;51.578;5.456;2022-08-19T10:03:57;60.35;;;46.13;;
58621;SDS011;44389;51.578;5.456;2022-08-19T10:06:26;58.63;;;44.42;;
58621;SDS011;44389;51.578;5.456;2022-08-19T10:08:56;61.15;;;45.10;;
58621;SDS011;44389;51.578;5.456;2022-08-19T10:11:21;57.72;;;44.28;;
58621;SDS011;44389;51.578;5.456;2022-08-19T10:13:46;59.35;;;46.17;;
58621;SDS011;44389;51.578;5.456;2022-08-19T10:16:15;62.53;;;46.58;;
58621;SDS011;44389;51.578;5.456;2022-08-19T10:18:43;65.20;;;47.30;;
58621;SDS011;44389;51.578;5.456;2022-08-19T10:21:11;56.72;;;45.28;;
58621;SDS011;44389;51.578;5.456;2022-08-19T10:23:39;58.63;;;45.22;;
58621;SDS011;44389;51.578;5.456;2022-08-19T10:26:09;63.28;;;42.08;;
58621;SDS011;44389;51.578;5.456;2022-08-19T10:28:35;53.75;;;40.00;;
58621;SDS011;44389;51.578;5.456;2022-08-19T10:31:05;54.70;;;40.65;;
58621;SDS011;44389;51.578;5.456;2022-08-19T10:33:39;51.67;;;39.67;;
58621;SDS011;44389;51.578;5.456;2022-08-19T10:36:06;54.92;;;42.00;;
58621;SDS011;44389;51.578;5.456;2022-08-19T10:38:34;50.67;;;40.28;;
58621;SDS011;44389;51.578;5.456;2022-08-19T10:41:11;52.88;;;41.05;;
58621;SDS011;44389;51.578;5.456;2022-08-19T10:43:40;54.38;;;40.75;;
58621;SDS011;44389;51.578;5.456;2022-08-19T10:46:07;55.30;;;41.28;;
58621;SDS011;44389;51.578;5.456;2022-08-19T10:48:34;51.90;;;38.60;;
58621;SDS011;44389;51.578;5.456;2022-08-19T10:51:00;51.85;;;39.85;;
58621;SDS011;44389;51.578;5.456;2022-08-19T10:53:44;47.25;;;38.08;;
58621;SDS011;44389;51.578;5.456;2022-08-19T10:56:09;46.83;;;37.83;;
58621;SDS011;44389;51.578;5.456;2022-08-19T10:58:53;45.58;;;35.53;;
58621;SDS011;44389;51.578;5.456;2022-08-19T11:01:19;50.10;;;37.72;;
58621;SDS011;44389;51.578;5.456;2022-08-19T11:03:45;50.45;;;37.90;;
58621;SDS011;44389;51.578;5.456;2022-08-19T11:06:10;48.25;;;38.00;;
58621;SDS011;44389;51.578;5.456;2022-08-19T11:08:36;59.35;;;38.40;;
58621;SDS011;44389;51.578;5.456;2022-08-19T11:11:07;45.35;;;35.53;;
58621;SDS011;44389;51.578;5.456;2022-08-19T11:13:34;47.47;;;34.97;;
58621;SDS011;44389;51.578;5.456;2022-08-19T11:16:24;45.25;;;36.67;;
58621;SDS011;44389;51.578;5.456;2022-08-19T11:18:51;49.33;;;36.80;;
58621;SDS011;44389;51.578;5.456;2022-08-19T11:21:20;46.00;;;34.38;;
58621;SDS011;44389;51.578;5.456;2022-08-19T11:23:47;45.95;;;35.60;;
58621;SDS011;44389;51.578;5.456;2022-08-19T11:26:15;44.15;;;34.38;;
58621;SDS011;44389;51.578;5.456;2022-08-19T11:28:40;44.88;;;35.47;;
58621;SDS011;44389;51.578;5.456;2022-08-19T11:31:13;44.63;;;35.10;;
58621;SDS011;44389;51.578;5.456;2022-08-19T11:33:43;40.75;;;32.53;;
58621;SDS011;44389;51.578;5.456;2022-08-19T11:36:10;42.97;;;33.25;;
58621;SDS011;44389;51.578;5.456;2022-08-19T11:38:36;41.05;;;29.85;;
58621;SDS011;44389;51.578;5.456;2022-08-19T11:41:03;41.95;;;31.48;;
58621;SDS011;44389;51.578;5.456;2022-08-19T11:43:30;38.35;;;29.65;;
58621;SDS011;44389;51.578;5.456;2022-08-19T11:45:56;38.63;;;27.77;;
58621;SDS011;44389;51.578;5.456;2022-08-19T11:48:23;34.97;;;26.93;;
58621;SDS011;44389;51.578;5.456;2022-08-19T11:50:50;32.63;;;27.35;;
58621;SDS011;44389;51.578;5.456;2022-08-19T11:53:17;34.28;;;25.45;;
58621;SDS011;44389;51.578;5.456;2022-08-19T11:55:45;29.25;;;22.92;;
58621;SDS011;44389;51.578;5.456;2022-08-19T11:58:11;29.03;;;22.77;;
58621;SDS011;44389;51.578;5.456;2022-08-19T12:00:38;34.92;;;25.65;;
58621;SDS011;44389;51.578;5.456;2022-08-19T12:03:04;28.52;;;21.63;;
58621;SDS011;44389;51.578;5.456;2022-08-19T12:05:30;28.85;;;22.25;;
58621;SDS011;44389;51.578;5.456;2022-08-19T12:07:55;28.67;;;24.83;;
58621;SDS011;44389;51.578;5.456;2022-08-19T12:10:21;31.15;;;22.90;;
58621;SDS011;44389;51.578;5.456;2022-08-19T12:12:47;28.23;;;21.27;;
58621;SDS011;44389;51.578;5.456;2022-08-19T12:15:13;24.95;;;18.98;;
58621;SDS011;44389;51.578;5.456;2022-08-19T12:17:39;29.20;;;22.57;;
58621;SDS011;44389;51.578;5.456;2022-08-19T12:20:06;26.90;;;21.65;;
58621;SDS011;44389;51.578;5.456;2022-08-19T12:22:34;30.50;;;23.45;;
58621;SDS011;44389;51.578;5.456;2022-08-19T12:24:59;30.90;;;23.63;;
58621;SDS011;44389;51.578;5.456;2022-08-19T12:27:25;31.50;;;23.75;;
58621;SDS011;44389;51.578;5.456;2022-08-19T12:29:51;31.85;;;24.05;;
58621;SDS011;44389;51.578;5.456;2022-08-19T12:32:16;29.67;;;23.93;;
58621;SDS011;44389;51.578;5.456;2022-08-19T12:34:41;35.90;;;27.02;;
58621;SDS011;44389;51.578;5.456;2022-08-19T12:37:07;32.78;;;26.13;;
58621;SDS011;44389;51.578;5.456;2022-08-19T12:39:36;35.10;;;27.40;;
58621;SDS011;44389;51.578;5.456;2022-08-19T12:42:03;38.88;;;28.10;;
58621;SDS011;44389;51.578;5.456;2022-08-19T12:44:29;35.80;;;26.33;;
58621;SDS011;44389;51.578;5.456;2022-08-19T12:46:55;35.25;;;28.17;;
58621;SDS011;44389;51.578;5.456;2022-08-19T12:49:21;35.80;;;28.08;;
58621;SDS011;44389;51.578;5.456;2022-08-19T12:51:47;35.30;;;27.33;;
58621;SDS011;44389;51.578;5.456;2022-08-19T12:54:12;35.22;;;27.13;;
58621;SDS011;44389;51.578;5.456;2022-08-19T12:56:37;34.80;;;27.35;;
58621;SDS011;44389;51.578;5.456;2022-08-19T12:59:03;34.08;;;26.25;;
58621;SDS011;44389;51.578;5.456;2022-08-19T13:01:29;33.03;;;26.30;;
58621;SDS011;44389;51.578;5.456;2022-08-19T13:03:57;33.55;;;26.58;;
58621;SDS011;44389;51.578;5.456;2022-08-19T13:06:23;30.63;;;26.00;;
58621;SDS011;44389;51.578;5.456;2022-08-19T13:08:49;32.10;;;25.52;;
58621;SDS011;44389;51.578;5.456;2022-08-19T13:11:15;30.17;;;25.27;;
58621;SDS011;44389;51.578;5.456;2022-08-19T13:13:43;33.75;;;27.77;;
58621;SDS011;44389;51.578;5.456;2022-08-19T13:16:10;34.75;;;28.33;;
58621;SDS011;44389;51.578;5.456;2022-08-19T13:18:37;35.55;;;27.38;;
58621;SDS011;44389;51.578;5.456;2022-08-19T13:21:05;33.30;;;26.58;;
58621;SDS011;44389;51.578;5.456;2022-08-19T13:23:33;36.95;;;28.83;;
58621;SDS011;44389;51.578;5.456;2022-08-19T13:26:00;35.60;;;28.02;;
58621;SDS011;44389;51.578;5.456;2022-08-19T13:28:27;35.50;;;28.70;;
58621;SDS011;44389;51.578;5.456;2022-08-19T13:31:14;40.03;;;31.50;;
58621;SDS011;44389;51.578;5.456;2022-08-19T13:33:59;45.00;;;32.08;;
58621;SDS011;44389;51.578;5.456;2022-08-19T13:36:24;44.75;;;30.35;;
58621;SDS011;44389;51.578;5.456;2022-08-19T13:38:50;38.70;;;29.92;;
58621;SDS011;44389;51.578;5.456;2022-08-19T13:41:16;36.30;;;29.92;;
58621;SDS011;44389;51.578;5.456;2022-08-19T13:43:43;37.17;;;27.85;;
58621;SDS011;44389;51.578;5.456;2022-08-19T13:46:09;33.50;;;25.98;;
58621;SDS011;44389;51.578;5.456;2022-08-19T13:48:38;33.05;;;25.65;;
58621;SDS011;44389;51.578;5.456;2022-08-19T13:51:05;30.23;;;24.70;;
58621;SDS011;44389;51.578;5.456;2022-08-19T13:53:35;32.45;;;24.98;;
58621;SDS011;44389;51.578;5.456;2022-08-19T13:56:11;31.35;;;22.50;;
58621;SDS011;44389;51.578;5.456;2022-08-19T13:58:38;27.27;;;20.52;;
58621;SDS011;44389;51.578;5.456;2022-08-19T14:01:04;30.67;;;20.50;;
58621;SDS011;44389;51.578;5.456;2022-08-19T14:03:31;26.52;;;21.05;;
58621;SDS011;44389;51.578;5.456;2022-08-19T14:05:57;28.67;;;19.77;;
58621;SDS011;44389;51.578;5.456;2022-08-19T14:08:23;25.75;;;19.20;;
58621;SDS011;44389;51.578;5.456;2022-08-19T14:10:49;26.73;;;19.25;;
58621;SDS011;44389;51.578;5.456;2022-08-19T14:13:16;26.10;;;19.63;;
58621;SDS011;44389;51.578;5.456;2022-08-19T14:15:43;24.75;;;18.38;;
58621;SDS011;44389;51.578;5.456;2022-08-19T14:18:08;24.77;;;20.00;;
58621;SDS011;44389;51.578;5.456;2022-08-19T14:20:34;23.95;;;19.63;;
58621;SDS011;44389;51.578;5.456;2022-08-19T14:23:00;26.63;;;19.23;;
58621;SDS011;44389;51.578;5.456;2022-08-19T14:25:27;23.70;;;18.60;;
58621;SDS011;44389;51.578;5.456;2022-08-19T14:27:54;25.13;;;18.48;;
58621;SDS011;44389;51.578;5.456;2022-08-19T14:30:24;25.13;;;17.40;;
58621;SDS011;44389;51.578;5.456;2022-08-19T14:32:52;18.63;;;14.68;;
58621;SDS011;44389;51.578;5.456;2022-08-19T14:35:19;17.40;;;13.95;;
58621;SDS011;44389;51.578;5.456;2022-08-19T14:37:47;16.67;;;13.43;;
58621;SDS011;44389;51.578;5.456;2022-08-19T14:40:14;18.20;;;14.25;;
58621;SDS011;44389;51.578;5.456;2022-08-19T14:42:42;18.25;;;13.95;;